TimeEST,TemperatureF,Dew PointF,Humidity,Sea Level PressureIn,VisibilityMPH,Wind Direction,Wind SpeedMPH,Gust SpeedMPH,PrecipitationIn,Events,Conditions,WindDirDegrees,DateUTC
12:53 AM,44.1,42.1,93,29.98,10.0,WSW,6.9,-,N/A,,Clear,240,2013-02-06 05:53:00
1:53 AM,43.0,41.0,93,29.98,5.0,SW,5.8,-,N/A,,Clear,230,2013-02-06 06:53:00
2:53 AM,42.1,39.9,92,29.99,10.0,WSW,4.6,-,N/A,,Clear,240,2013-02-06 07:53:00
3:53 AM,42.1,39.0,89,30.00,10.0,West,5.8,-,N/A,,Clear,260,2013-02-06 08:53:00
4:53 AM,42.1,39.9,92,30.02,10.0,Calm,Calm,-,N/A,,Clear,0,2013-02-06 09:53:00
5:53 AM,42.1,37.9,85,30.05,10.0,North,4.6,-,N/A,,Clear,360,2013-02-06 10:53:00
6:53 AM,39.0,37.0,93,30.08,10.0,Calm,Calm,-,N/A,,Clear,0,2013-02-06 11:53:00
7:53 AM,37.4,35.6,93,30.11,10.0,Calm,Calm,-,N/A,,Clear,0,2013-02-06 12:53:00
8:53 AM,45.0,39.9,82,30.13,10.0,NNE,3.5,-,N/A,,Clear,20,2013-02-06 13:53:00
9:53 AM,53.1,35.1,50,30.14,10.0,North,6.9,-,N/A,,Clear,10,2013-02-06 14:53:00
10:53 AM,57.0,32.0,39,30.15,10.0,NW,4.6,-,N/A,,Clear,320,2013-02-06 15:53:00
11:53 AM,60.1,28.9,31,30.14,10.0,Calm,Calm,-,N/A,,Clear,0,2013-02-06 16:53:00
12:53 PM,62.1,27.0,26,30.12,10.0,Variable,4.6,-,N/A,,Clear,0,2013-02-06 17:53:00
1:53 PM,64.9,27.0,24,30.10,10.0,West,9.2,-,N/A,,Clear,280,2013-02-06 18:53:00
2:53 PM,64.9,25.0,22,30.09,10.0,Variable,3.5,-,N/A,,Clear,0,2013-02-06 19:53:00
3:53 PM,64.9,24.1,21,30.08,10.0,Calm,Calm,-,N/A,,Clear,0,2013-02-06 20:53:00
4:53 PM,63.0,23.0,22,30.10,10.0,Calm,Calm,-,N/A,,Clear,0,2013-02-06 21:53:00
5:53 PM,59.0,25.0,27,30.10,10.0,East,5.8,-,N/A,,Clear,90,2013-02-06 22:53:00
6:53 PM,55.0,26.1,33,30.12,10.0,ESE,5.8,-,N/A,,Clear,120,2013-02-06 23:53:00
7:53 PM,53.1,26.1,35,30.12,10.0,East,6.9,-,N/A,,Clear,90,2013-02-07 00:53:00
8:53 PM,52.0,26.1,37,30.12,10.0,East,8.1,-,N/A,,Clear,90,2013-02-07 01:53:00
9:53 PM,48.9,25.0,39,30.16,10.0,East,5.8,-,N/A,,Clear,90,2013-02-07 02:53:00
10:53 PM,48.0,26.1,42,30.16,10.0,NNE,4.6,-,N/A,,Clear,30,2013-02-07 03:53:00
11:53 PM,48.0,26.1,42,30.15,10.0,NNE,8.1,-,N/A,,Clear,30,2013-02-07 04:53:00